createdAt,value
2017-12-23T00:00:05.805Z,40.40
2017-12-23T00:02:32.462Z,55.37
2017-12-23T00:04:59.056Z,49.87
2017-12-23T00:07:25.688Z,48.70
2017-12-23T00:09:52.316Z,46.90
2017-12-23T00:12:18.935Z,54.23
2017-12-23T00:14:45.554Z,45.67
2017-12-23T00:17:12.194Z,50.70
2017-12-23T00:19:38.824Z,49.23
2017-12-23T00:22:05.426Z,44.00
2017-12-23T00:24:32.106Z,33.43
2017-12-23T00:26:58.736Z,40.37
2017-12-23T00:29:25.420Z,44.77
2017-12-23T00:31:51.997Z,41.43
2017-12-23T00:34:24.411Z,37.80
2017-12-23T00:36:51.008Z,38.43
2017-12-23T00:39:18.300Z,36.25
2017-12-23T00:41:44.912Z,37.90
2017-12-23T00:44:11.529Z,35.37
2017-12-23T00:46:38.143Z,34.27
2017-12-23T00:49:04.775Z,30.70
2017-12-23T00:51:31.447Z,32.40
2017-12-23T00:53:58.125Z,35.83
2017-12-23T00:56:24.680Z,37.23
2017-12-23T00:58:51.278Z,38.70
2017-12-23T01:01:17.973Z,37.50
2017-12-23T01:03:44.582Z,37.63
2017-12-23T01:06:11.169Z,31.33
2017-12-23T01:08:38.032Z,31.40
2017-12-23T01:11:04.630Z,32.87
2017-12-23T01:13:31.221Z,35.50
2017-12-23T01:15:57.854Z,31.50
2017-12-23T01:18:24.460Z,33.97
2017-12-23T01:20:51.048Z,31.77
2017-12-23T01:23:17.691Z,34.70
2017-12-23T01:25:44.285Z,31.03
2017-12-23T01:28:10.912Z,32.10
2017-12-23T01:30:37.516Z,33.10
2017-12-23T01:33:04.139Z,36.47
2017-12-23T01:35:30.727Z,38.07
2017-12-23T01:37:57.339Z,43.97
2017-12-23T01:40:23.945Z,38.50
2017-12-23T01:42:50.565Z,40.33
2017-12-23T01:45:17.185Z,36.90
2017-12-23T01:47:43.820Z,36.10
2017-12-23T01:50:10.402Z,40.00
2017-12-23T01:52:37.017Z,41.07
2017-12-23T01:55:03.641Z,38.87
2017-12-23T01:57:30.249Z,39.13
2017-12-23T01:59:56.883Z,37.97
2017-12-23T02:02:23.464Z,47.40
2017-12-23T02:04:50.088Z,42.20
2017-12-23T02:07:16.686Z,42.67
2017-12-23T02:09:43.315Z,45.53
2017-12-23T02:12:10.192Z,44.43
2017-12-23T02:14:37.010Z,45.13
2017-12-23T02:17:03.625Z,38.90
2017-12-23T02:19:30.228Z,35.90
2017-12-23T02:21:57.042Z,43.63
2017-12-23T02:24:23.644Z,42.60
2017-12-23T02:26:50.319Z,50.23
2017-12-23T02:29:16.918Z,44.73
2017-12-23T02:31:43.538Z,102.03
2017-12-23T02:34:10.246Z,47.07
2017-12-23T02:36:36.874Z,55.23
2017-12-23T02:39:03.504Z,90.97
2017-12-23T02:41:30.152Z,46.27
2017-12-23T02:43:56.779Z,61.27
2017-12-23T02:46:23.382Z,58.30
2017-12-23T02:48:50.007Z,39.53
2017-12-23T02:51:16.636Z,47.57
2017-12-23T02:53:43.435Z,65.60
2017-12-23T02:56:10.070Z,43.67
2017-12-23T02:58:36.682Z,39.77
2017-12-23T03:01:03.299Z,30.30
2017-12-23T03:03:29.923Z,42.20
2017-12-23T03:05:56.534Z,42.77
2017-12-23T03:08:23.159Z,33.20
2017-12-23T03:10:49.816Z,26.43
2017-12-23T03:13:16.423Z,29.00
2017-12-23T03:15:43.026Z,25.30
2017-12-23T03:18:09.628Z,23.57
2017-12-23T03:20:36.283Z,17.47
2017-12-23T03:23:02.880Z,22.13
2017-12-23T03:25:29.519Z,17.07
2017-12-23T03:27:56.115Z,17.70
2017-12-23T03:30:22.761Z,15.93
2017-12-23T03:32:49.400Z,16.47
2017-12-23T03:35:15.980Z,14.73
2017-12-23T03:37:42.597Z,21.60
2017-12-23T03:40:09.236Z,16.00
2017-12-23T03:42:35.851Z,14.50
2017-12-23T03:45:02.453Z,16.70
2017-12-23T03:47:29.081Z,14.40
2017-12-23T03:49:55.711Z,13.90
2017-12-23T03:52:22.317Z,17.07
2017-12-23T03:54:48.933Z,13.80
2017-12-23T03:57:15.561Z,12.80
2017-12-23T03:59:42.147Z,11.17
2017-12-23T04:02:08.755Z,11.10
2017-12-23T04:04:35.351Z,12.00
2017-12-23T04:07:01.971Z,11.47
2017-12-23T04:09:28.588Z,9.93
2017-12-23T04:11:55.213Z,10.63
2017-12-23T04:14:21.845Z,10.20
2017-12-23T04:16:48.436Z,10.80
2017-12-23T04:19:15.033Z,10.90
2017-12-23T04:21:41.621Z,9.60
2017-12-23T04:24:08.342Z,11.13
2017-12-23T04:26:34.940Z,10.40
2017-12-23T04:29:01.556Z,10.03
2017-12-23T04:31:28.141Z,10.60
2017-12-23T04:33:54.774Z,10.57
2017-12-23T04:36:21.374Z,10.30
2017-12-23T04:38:47.954Z,10.80
2017-12-23T04:41:14.572Z,10.33
2017-12-23T04:43:41.158Z,10.10
2017-12-23T04:46:07.774Z,10.50
2017-12-23T04:48:34.361Z,9.80
2017-12-23T04:51:00.998Z,11.03
2017-12-23T04:53:27.596Z,10.33
2017-12-23T04:55:54.217Z,11.60
2017-12-23T04:58:20.836Z,12.03
2017-12-23T05:00:47.446Z,12.30
2017-12-23T05:03:14.058Z,12.37
2017-12-23T05:05:40.657Z,12.53
2017-12-23T05:08:07.317Z,13.00
2017-12-23T05:10:34.080Z,12.50
2017-12-23T05:13:00.684Z,12.33
2017-12-23T05:15:27.354Z,12.33
2017-12-23T05:17:53.965Z,13.00
2017-12-23T05:20:20.598Z,13.40
2017-12-23T05:22:47.210Z,13.00
2017-12-23T05:25:13.825Z,12.97
2017-12-23T05:27:40.420Z,13.77
2017-12-23T05:30:07.031Z,13.93
2017-12-23T05:32:33.633Z,13.87
2017-12-23T05:35:00.369Z,12.97
2017-12-23T05:37:26.952Z,13.10
2017-12-23T05:39:53.726Z,12.90
2017-12-23T05:42:20.348Z,14.13
2017-12-23T05:44:46.961Z,16.73
2017-12-23T05:47:13.556Z,16.40
2017-12-23T05:49:40.195Z,15.50
2017-12-23T05:52:06.814Z,15.60
2017-12-23T05:54:33.405Z,14.20
2017-12-23T05:57:00.082Z,13.37
2017-12-23T05:59:26.717Z,14.13
2017-12-23T06:01:53.331Z,12.90
2017-12-23T06:04:20.313Z,14.45
2017-12-23T06:06:47.163Z,13.90
2017-12-23T06:09:13.767Z,12.60
2017-12-23T06:11:40.403Z,12.60
2017-12-23T06:14:07.035Z,13.90
2017-12-23T06:16:33.648Z,12.40
2017-12-23T06:19:00.513Z,12.33
2017-12-23T06:21:27.122Z,11.80
2017-12-23T06:23:53.745Z,10.73
2017-12-23T06:26:20.336Z,11.90
2017-12-23T06:28:46.947Z,11.30
2017-12-23T06:31:13.549Z,10.90
2017-12-23T06:33:40.173Z,12.00
2017-12-23T06:36:06.763Z,13.10
2017-12-23T06:38:33.398Z,12.17
2017-12-23T06:41:00.001Z,14.23
2017-12-23T06:43:26.623Z,12.70
2017-12-23T06:45:53.221Z,13.40
2017-12-23T06:48:19.836Z,11.80
2017-12-23T06:50:46.448Z,12.57
2017-12-23T06:53:13.070Z,12.80
2017-12-23T06:55:39.664Z,13.40
2017-12-23T06:58:06.271Z,12.53
2017-12-23T07:00:33.115Z,12.87
2017-12-23T07:02:59.729Z,13.37
2017-12-23T07:05:26.351Z,13.37
2017-12-23T07:07:52.947Z,14.93
2017-12-23T07:10:19.584Z,16.10
2017-12-23T07:12:46.437Z,14.53
2017-12-23T07:15:13.077Z,15.63
2017-12-23T07:17:39.683Z,15.30
2017-12-23T07:20:06.284Z,16.17
2017-12-23T07:22:32.883Z,16.83
2017-12-23T07:24:59.700Z,21.90
2017-12-23T07:27:26.393Z,17.27
2017-12-23T07:29:52.996Z,18.57
2017-12-23T07:32:19.636Z,17.83
2017-12-23T07:34:46.489Z,18.57
2017-12-23T07:37:13.104Z,21.43
2017-12-23T07:39:39.748Z,16.80
2017-12-23T07:42:06.381Z,15.80
2017-12-23T07:44:33.004Z,20.57
2017-12-23T07:46:59.632Z,16.30
2017-12-23T07:49:26.247Z,15.33
2017-12-23T07:51:52.854Z,17.67
2017-12-23T07:54:19.581Z,15.47
2017-12-23T07:56:46.237Z,16.67
2017-12-23T07:59:12.851Z,17.23
2017-12-23T08:01:39.477Z,19.93
2017-12-23T08:04:06.110Z,15.40
2017-12-23T08:06:32.751Z,16.90
2017-12-23T08:08:59.335Z,19.03
2017-12-23T08:11:25.964Z,17.33
2017-12-23T08:13:52.568Z,17.80
2017-12-23T08:16:19.252Z,17.20
2017-12-23T08:18:45.995Z,17.37
2017-12-23T08:21:12.602Z,15.80
2017-12-23T08:23:39.225Z,15.70
2017-12-23T08:26:05.858Z,16.13
2017-12-23T08:28:32.494Z,15.70
2017-12-23T08:30:59.096Z,19.93
2017-12-23T08:33:25.701Z,14.63
2017-12-23T08:35:52.320Z,15.07
2017-12-23T08:38:18.940Z,14.83
2017-12-23T08:40:45.541Z,15.57
2017-12-23T08:43:12.167Z,15.93
2017-12-23T08:45:40.093Z,20.73
2017-12-23T08:48:06.715Z,15.30
2017-12-23T08:50:33.950Z,13.97
2017-12-23T08:53:00.557Z,14.83
2017-12-23T08:55:27.221Z,14.10
2017-12-23T08:57:53.825Z,15.63
2017-12-23T09:00:20.538Z,14.53
2017-12-23T09:02:47.212Z,15.57
2017-12-23T09:05:13.814Z,12.90
2017-12-23T09:07:40.420Z,14.90
2017-12-23T09:10:07.116Z,12.90
2017-12-23T09:12:33.756Z,12.90
2017-12-23T09:15:01.577Z,12.80
2017-12-23T09:17:28.369Z,11.33
2017-12-23T09:19:55.011Z,12.37
2017-12-23T09:22:22.187Z,13.00
2017-12-23T09:25:03.552Z,11.47
2017-12-23T09:27:30.556Z,11.70
2017-12-23T09:29:57.132Z,12.17
2017-12-23T09:32:23.807Z,13.37
2017-12-23T09:34:50.560Z,12.00
2017-12-23T09:37:17.164Z,12.17
2017-12-23T09:39:44.084Z,9.63
2017-12-23T09:42:10.711Z,9.23
2017-12-23T09:44:37.289Z,9.67
2017-12-23T09:47:04.083Z,8.90
2017-12-23T09:49:30.804Z,10.43
2017-12-23T09:51:57.430Z,10.00
2017-12-23T09:54:24.200Z,10.00
2017-12-23T09:56:50.874Z,10.67
2017-12-23T09:59:17.619Z,9.40
2017-12-23T10:01:44.244Z,10.80
2017-12-23T10:04:10.855Z,10.63
2017-12-23T10:06:37.512Z,10.13
2017-12-23T10:09:04.182Z,9.33
2017-12-23T10:11:30.804Z,9.90
2017-12-23T10:13:57.443Z,9.20
2017-12-23T10:16:24.867Z,8.57
2017-12-23T10:18:51.491Z,8.57
2017-12-23T10:21:18.249Z,9.73
2017-12-23T10:23:44.851Z,9.10
2017-12-23T10:26:11.454Z,8.80
2017-12-23T10:28:38.131Z,8.87
2017-12-23T10:31:04.717Z,8.03
2017-12-23T10:33:31.545Z,8.60
2017-12-23T10:35:58.154Z,7.40
2017-12-23T10:38:24.902Z,8.77
2017-12-23T10:40:51.537Z,8.40
2017-12-23T10:43:18.119Z,10.40
2017-12-23T10:45:44.795Z,8.37
2017-12-23T10:48:11.398Z,9.80
2017-12-23T10:50:38.085Z,12.80
2017-12-23T10:53:04.649Z,11.13
2017-12-23T10:55:31.298Z,9.53
2017-12-23T10:57:57.932Z,10.43
2017-12-23T11:00:24.602Z,9.50
2017-12-23T11:02:51.200Z,9.60
2017-12-23T11:05:17.826Z,10.13
2017-12-23T11:07:44.432Z,10.40
2017-12-23T11:10:11.043Z,10.57
2017-12-23T11:12:37.670Z,13.30
2017-12-23T11:15:04.312Z,10.87
2017-12-23T11:17:31.244Z,10.73
2017-12-23T11:19:57.859Z,10.53
2017-12-23T11:22:24.614Z,12.00
2017-12-23T11:24:51.256Z,14.50
2017-12-23T11:27:17.887Z,12.23
2017-12-23T11:29:44.519Z,12.43
2017-12-23T11:32:11.129Z,9.53
2017-12-23T11:34:37.752Z,11.57
2017-12-23T11:37:04.347Z,10.93
2017-12-23T11:39:31.097Z,10.97
2017-12-23T11:41:57.696Z,12.93
2017-12-23T11:44:24.324Z,11.53
2017-12-23T11:46:51.133Z,10.80
2017-12-23T11:49:17.793Z,11.57
2017-12-23T11:51:44.534Z,10.93
2017-12-23T11:54:11.309Z,11.57
2017-12-23T11:56:37.949Z,12.67
2017-12-23T11:59:04.549Z,12.00
2017-12-23T12:01:31.180Z,12.77
2017-12-23T12:03:57.836Z,15.13
2017-12-23T12:06:24.495Z,12.57
2017-12-23T12:08:51.121Z,13.23
2017-12-23T12:11:18.080Z,11.67
2017-12-23T12:13:44.702Z,12.20
2017-12-23T12:16:11.359Z,52.43
2017-12-23T12:18:38.156Z,13.70
2017-12-23T12:21:04.785Z,13.73
2017-12-23T12:23:31.441Z,12.03
2017-12-23T12:25:58.040Z,12.63
2017-12-23T12:28:24.723Z,17.70
2017-12-23T12:30:51.356Z,13.17
2017-12-23T12:33:18.037Z,11.80
2017-12-23T12:35:44.667Z,12.53
2017-12-23T12:38:11.274Z,17.90
2017-12-23T12:40:37.935Z,12.93
2017-12-23T12:43:04.550Z,15.00
2017-12-23T12:45:31.188Z,13.60
2017-12-23T12:47:57.839Z,17.47
2017-12-23T12:50:24.457Z,12.23
2017-12-23T12:52:51.065Z,12.47
2017-12-23T12:55:17.741Z,11.40
2017-12-23T12:57:44.342Z,14.53
2017-12-23T13:00:10.917Z,13.37
2017-12-23T13:02:37.517Z,18.10
2017-12-23T13:05:04.228Z,11.10
2017-12-23T13:07:30.829Z,15.53
2017-12-23T13:09:57.494Z,10.97
2017-12-23T13:12:24.086Z,11.23
2017-12-23T13:14:50.739Z,13.80
2017-12-23T13:17:17.372Z,11.67
2017-12-23T13:19:44.051Z,12.13
2017-12-23T13:22:10.849Z,11.00
2017-12-23T13:24:37.501Z,11.50
2017-12-23T13:27:04.091Z,10.40
2017-12-23T13:29:30.783Z,9.90
2017-12-23T13:31:57.461Z,11.17
2017-12-23T13:34:24.063Z,10.03
2017-12-23T13:36:50.798Z,11.10
2017-12-23T13:39:17.381Z,10.40
2017-12-23T13:41:44.043Z,11.07
2017-12-23T13:44:10.657Z,10.27
2017-12-23T13:46:37.391Z,10.73
2017-12-23T13:49:04.020Z,17.40
2017-12-23T13:51:30.646Z,12.27
2017-12-23T13:53:57.276Z,10.70
2017-12-23T13:56:24.083Z,11.43
2017-12-23T13:58:50.716Z,10.73
2017-12-23T14:01:17.407Z,10.97
2017-12-23T14:03:44.082Z,10.80
2017-12-23T14:06:10.735Z,9.70
2017-12-23T14:08:37.427Z,10.93
2017-12-23T14:11:04.077Z,10.30
2017-12-23T14:13:30.771Z,8.53
2017-12-23T14:15:57.370Z,8.30
2017-12-23T14:18:23.984Z,8.70
2017-12-23T14:20:50.621Z,7.47
2017-12-23T14:23:17.292Z,8.43
2017-12-23T14:25:43.919Z,7.73
2017-12-23T14:28:10.538Z,8.23
2017-12-23T14:30:37.143Z,7.67
2017-12-23T14:33:03.820Z,7.33
2017-12-23T14:35:30.446Z,9.60
2017-12-23T14:37:57.048Z,7.00
2017-12-23T14:40:23.675Z,7.20
2017-12-23T14:42:50.284Z,7.00
2017-12-23T14:45:16.928Z,6.40
2017-12-23T14:47:43.524Z,6.90
2017-12-23T14:50:10.158Z,6.60
2017-12-23T14:52:36.771Z,6.33
2017-12-23T14:55:03.461Z,6.50
2017-12-23T14:57:30.131Z,6.40
2017-12-23T14:59:56.805Z,6.07
2017-12-23T15:02:23.423Z,10.13
2017-12-23T15:04:50.152Z,9.40
2017-12-23T15:07:16.824Z,6.67
2017-12-23T15:09:43.477Z,12.10
2017-12-23T15:12:10.223Z,5.60
2017-12-23T15:14:37.454Z,6.17
2017-12-23T15:17:04.041Z,8.17
2017-12-23T15:19:30.684Z,6.57
2017-12-23T15:21:57.311Z,15.73
2017-12-23T15:24:24.666Z,6.20
2017-12-23T15:26:51.271Z,6.57
2017-12-23T15:29:18.067Z,9.07
2017-12-23T15:31:44.747Z,7.77
2017-12-23T15:34:11.695Z,6.40
2017-12-23T15:36:39.346Z,20.53
2017-12-23T15:39:06.206Z,9.90
2017-12-23T15:41:33.423Z,9.07
2017-12-23T15:44:00.347Z,10.80
2017-12-23T15:46:26.948Z,7.70
2017-12-23T15:48:53.536Z,12.40
2017-12-23T15:51:20.541Z,8.37
2017-12-23T15:53:47.132Z,8.40
2017-12-23T15:56:13.827Z,7.60
2017-12-23T15:58:40.480Z,9.87
2017-12-23T16:01:07.079Z,7.23
2017-12-23T16:03:33.714Z,7.03
2017-12-23T16:06:00.669Z,8.40
2017-12-23T16:08:27.524Z,6.67
2017-12-23T16:10:54.151Z,6.80
2017-12-23T16:13:20.852Z,6.53
2017-12-23T16:15:47.473Z,7.20
2017-12-23T16:18:14.089Z,7.20
2017-12-23T16:20:40.680Z,7.43
2017-12-23T16:23:07.303Z,8.60
2017-12-23T16:25:33.907Z,6.50
2017-12-23T16:28:00.512Z,10.13
2017-12-23T16:30:27.108Z,6.70
2017-12-23T16:32:53.714Z,11.73
2017-12-23T16:35:20.336Z,6.93
2017-12-23T16:37:46.919Z,7.20
2017-12-23T16:40:13.580Z,8.00
2017-12-23T16:42:40.175Z,7.10
2017-12-23T16:45:06.795Z,7.20
2017-12-23T16:47:33.891Z,6.10
2017-12-23T16:50:00.517Z,6.33
2017-12-23T16:52:27.127Z,5.30
2017-12-23T16:54:53.825Z,6.90
2017-12-23T16:57:20.445Z,5.73
2017-12-23T16:59:47.065Z,6.13
2017-12-23T17:02:14.245Z,5.50
2017-12-23T17:04:40.875Z,5.17
2017-12-23T17:09:39.403Z,5.60
2017-12-23T17:12:06.029Z,5.67
2017-12-23T17:14:32.668Z,4.87
2017-12-23T17:16:59.308Z,6.37
2017-12-23T17:19:26.021Z,5.23
2017-12-23T17:21:52.888Z,4.70
2017-12-23T17:24:19.511Z,5.23
2017-12-23T17:26:46.298Z,5.03
2017-12-23T17:29:18.808Z,5.03
2017-12-23T17:31:45.416Z,5.60
2017-12-23T17:34:12.899Z,5.80
2017-12-23T17:36:39.533Z,5.50
2017-12-23T17:39:06.209Z,7.47
2017-12-23T17:41:32.790Z,4.70
2017-12-23T17:43:59.397Z,4.67
2017-12-23T17:46:26.116Z,4.77
2017-12-23T17:48:52.716Z,4.87
2017-12-23T17:51:19.406Z,4.77
2017-12-23T17:53:46.036Z,4.43
2017-12-23T17:56:12.635Z,6.60
2017-12-23T17:58:39.257Z,7.30
2017-12-23T18:01:05.873Z,5.80
2017-12-23T18:03:32.464Z,5.53
2017-12-23T18:05:59.108Z,4.53
2017-12-23T18:08:25.697Z,5.30
2017-12-23T18:10:52.373Z,6.07
2017-12-23T18:13:19.030Z,4.43
2017-12-23T18:15:45.618Z,3.80
2017-12-23T18:18:12.240Z,3.50
2017-12-23T18:20:39.099Z,3.80
2017-12-23T18:23:06.056Z,3.80
2017-12-23T18:25:32.659Z,8.73
2017-12-23T18:27:59.280Z,4.40
2017-12-23T18:30:25.964Z,5.33
2017-12-23T18:32:52.563Z,4.90
2017-12-23T18:35:19.251Z,3.80
2017-12-23T18:37:46.192Z,4.47
2017-12-23T18:40:12.833Z,5.63
2017-12-23T18:42:39.484Z,4.63
2017-12-23T18:45:06.879Z,4.17
2017-12-23T18:47:33.499Z,5.07
2017-12-23T18:50:00.201Z,6.77
2017-12-23T18:52:27.550Z,5.17
2017-12-23T18:54:54.153Z,5.20
2017-12-23T18:57:21.041Z,6.20
2017-12-23T18:59:47.636Z,4.80
2017-12-23T19:02:14.246Z,4.30
2017-12-23T19:04:40.845Z,4.60
2017-12-23T19:07:07.440Z,7.23
2017-12-23T19:09:34.036Z,5.63
2017-12-23T19:12:00.659Z,4.97
2017-12-23T19:14:27.256Z,5.07
2017-12-23T19:16:53.909Z,14.73
2017-12-23T19:19:20.797Z,5.67
2017-12-23T19:21:47.418Z,5.03
2017-12-23T19:24:14.004Z,4.03
2017-12-23T19:26:40.636Z,5.73
2017-12-23T19:29:07.551Z,5.67
2017-12-23T19:31:34.150Z,8.20
2017-12-23T19:34:00.776Z,5.53
2017-12-23T19:36:27.399Z,5.00
2017-12-23T19:38:53.998Z,4.10
2017-12-23T19:41:20.626Z,4.20
2017-12-23T19:43:47.240Z,6.70
2017-12-23T19:46:13.879Z,5.30
2017-12-23T19:48:40.716Z,4.10
2017-12-23T19:51:07.315Z,4.20
2017-12-23T19:53:33.887Z,5.00
2017-12-23T19:56:00.510Z,6.53
2017-12-23T19:58:27.133Z,5.60
2017-12-23T20:00:53.812Z,3.90
2017-12-23T20:03:20.422Z,4.03
2017-12-23T20:05:47.039Z,3.90
2017-12-23T20:08:13.637Z,3.90
2017-12-23T20:10:40.247Z,4.30
2017-12-23T20:13:08.187Z,4.77
2017-12-23T20:15:34.812Z,9.03
2017-12-23T20:18:01.520Z,4.30
2017-12-23T20:20:28.538Z,6.93
2017-12-23T20:22:55.354Z,5.20
2017-12-23T20:25:23.588Z,11.43
2017-12-23T20:27:50.242Z,4.70
2017-12-23T20:30:16.902Z,5.20
2017-12-23T20:32:43.464Z,4.33
2017-12-23T20:35:10.119Z,4.70
2017-12-23T20:37:36.720Z,4.70
2017-12-23T20:40:03.416Z,4.50
2017-12-23T20:42:30.106Z,7.07
2017-12-23T20:44:56.674Z,3.47
2017-12-23T20:47:23.329Z,4.27
2017-12-23T20:49:50.015Z,5.30
2017-12-23T20:52:16.634Z,4.53
2017-12-23T20:54:43.246Z,4.20
2017-12-23T20:57:09.884Z,5.10
2017-12-23T20:59:36.550Z,9.73
2017-12-23T21:02:03.151Z,3.93
2017-12-23T21:04:29.793Z,4.63
2017-12-23T21:06:56.438Z,4.80
2017-12-23T21:09:23.150Z,5.20
2017-12-23T21:11:49.754Z,3.87
2017-12-23T21:14:16.375Z,4.70
2017-12-23T21:16:43.176Z,4.50
2017-12-23T21:19:09.804Z,5.50
2017-12-23T21:21:36.423Z,4.67
2017-12-23T21:24:03.137Z,5.40
2017-12-23T21:26:29.736Z,4.50
2017-12-23T21:28:56.774Z,4.97
2017-12-23T21:31:23.348Z,4.50
2017-12-23T21:33:49.952Z,6.40
2017-12-23T21:36:16.550Z,5.03
2017-12-23T22:19:34.171Z,3.90
2017-12-23T22:22:01.596Z,3.80
2017-12-23T22:24:28.997Z,4.10
2017-12-23T22:26:56.411Z,11.57
2017-12-23T22:29:23.836Z,4.53
2017-12-23T22:31:51.264Z,4.47
2017-12-23T22:34:18.690Z,4.00
2017-12-23T22:36:46.095Z,3.93
2017-12-23T22:39:13.543Z,3.50
2017-12-23T22:41:40.950Z,3.97
2017-12-23T22:44:08.353Z,3.77
2017-12-23T22:46:35.750Z,3.80
2017-12-23T22:49:03.153Z,3.60
2017-12-23T22:51:30.618Z,3.87
2017-12-23T22:53:58.017Z,3.60
2017-12-23T22:56:25.446Z,3.07
2017-12-23T22:58:52.878Z,3.70
2017-12-23T23:01:20.266Z,3.50
2017-12-23T23:03:47.714Z,3.20
2017-12-23T23:06:15.144Z,4.10
2017-12-23T23:08:42.609Z,3.95
2017-12-23T23:11:10.000Z,3.57
2017-12-23T23:13:37.411Z,3.53
2017-12-23T23:16:04.882Z,2.80
2017-12-23T23:18:32.264Z,3.20
2017-12-23T23:20:59.685Z,3.50
2017-12-23T23:23:27.101Z,3.00
2017-12-23T23:25:54.740Z,2.92
2017-12-23T23:28:22.169Z,3.13
2017-12-23T23:30:49.629Z,3.97
2017-12-23T23:33:17.048Z,4.93
2017-12-23T23:35:44.482Z,5.10
2017-12-23T23:38:11.866Z,3.93
2017-12-23T23:40:40.268Z,3.23
2017-12-23T23:43:07.680Z,2.50
2017-12-23T23:45:35.077Z,2.90
2017-12-23T23:48:02.515Z,2.87
2017-12-23T23:50:29.889Z,2.27
2017-12-23T23:52:57.297Z,2.60
2017-12-23T23:55:24.693Z,2.57
2017-12-23T23:57:52.132Z,2.50
